Time;durP1;ratioP1;P1;durP2;ratioP2;P2;SDS_P1;SDS_P2;PMS_P1;PMS_P2;Temp;Humidity;BMP_temperature;BMP_pressure;BME280_temperature;BME280_humidity;BME280_pressure;Samples;Min_cycle;Max_cycle;Signal;HPM_P1;HPM_P2
2021/08/01 00:00:38;;;;;;;4.77;4.33;;;15.90;99.90;;;;;;5034471;28;20203;-47
2021/08/01 00:03:05;;;;;;;7.07;4.70;;;15.90;99.90;;;;;;5046662;28;20195;-48
2021/08/01 00:05:32;;;;;;;6.60;4.37;;;15.90;99.90;;;;;;5043445;28;20179;-42
2021/08/01 00:07:58;;;;;;;4.80;4.40;;;15.90;99.90;;;;;;5046156;28;20219;-43
2021/08/01 00:10:25;;;;;;;5.53;4.67;;;15.90;99.90;;;;;;5042366;28;20783;-44
2021/08/01 00:12:54;;;;;;;5.63;4.60;;;15.90;99.90;;;;;;5046190;28;20744;-41
2021/08/01 00:15:20;;;;;;;5.97;4.87;;;15.90;99.90;;;;;;5027219;28;20211;-47
2021/08/01 00:17:47;;;;;;;4.77;4.27;;;15.90;99.90;;;;;;5044727;28;20222;-41
2021/08/01 00:20:14;;;;;;;6.67;4.80;;;15.90;99.90;;;;;;5043823;28;20215;-49
2021/08/01 00:22:41;;;;;;;5.97;4.97;;;15.90;99.90;;;;;;5044315;28;20187;-42
2021/08/01 00:25:09;;;;;;;8.17;4.83;;;15.90;99.90;;;;;;5045780;28;20545;-44
2021/08/01 00:27:36;;;;;;;5.43;4.43;;;15.90;99.90;;;;;;5042642;28;20199;-41
2021/08/01 00:30:06;;;;;;;5.97;4.63;;;15.90;99.90;;;;;;5029629;28;20203;-41
2021/08/01 00:32:32;;;;;;;7.13;4.70;;;15.90;99.90;;;;;;5042038;28;20195;-41
2021/08/01 00:35:00;;;;;;;5.90;5.30;;;15.80;99.90;;;;;;5045563;28;20746;-42
2021/08/01 00:37:27;;;;;;;5.03;4.30;;;15.90;99.90;;;;;;5041826;28;20880;-41
2021/08/01 00:39:54;;;;;;;7.17;4.80;;;15.90;99.90;;;;;;5045464;28;20199;-41
2021/08/01 00:42:20;;;;;;;6.93;4.83;;;15.90;99.90;;;;;;5042550;28;20199;-45
2021/08/01 00:44:47;;;;;;;8.77;4.83;;;15.90;99.90;;;;;;5045499;28;20187;-44
2021/08/01 00:47:15;;;;;;;5.53;4.50;;;15.90;99.90;;;;;;5025172;28;20231;-48
2021/08/01 00:49:42;;;;;;;6.03;4.50;;;15.90;99.90;;;;;;5039128;28;20192;-41
2021/08/01 00:52:10;;;;;;;6.97;4.80;;;15.90;99.90;;;;;;5044550;28;20199;-47
2021/08/01 00:54:37;;;;;;;4.60;4.10;;;15.90;99.90;;;;;;5041797;28;20253;-43
2021/08/01 00:57:05;;;;;;;5.13;4.70;;;15.90;99.90;;;;;;5044186;28;20696;-44
2021/08/01 00:59:33;;;;;;;6.33;5.17;;;15.90;99.90;;;;;;5040482;28;20195;-43
2021/08/01 01:02:06;;;;;;;5.50;5.00;;;15.90;99.90;;;;;;5026361;28;20211;-42
2021/08/01 01:04:45;;;;;;;6.40;4.80;;;15.90;99.90;;;;;;5040762;28;20278;-42
2021/08/01 01:07:18;;;;;;;5.37;4.93;;;15.90;99.90;;;;;;5043679;28;20215;-47
2021/08/01 01:09:50;;;;;;;8.30;4.67;;;15.90;99.90;;;;;;5043066;28;20660;-44
2021/08/01 01:12:30;;;;;;;5.17;4.70;;;15.80;99.90;;;;;;5040591;28;20233;-45
2021/08/01 01:14:59;;;;;;;6.63;5.07;;;15.80;99.90;;;;;;5045095;28;20215;-41
2021/08/01 01:17:31;;;;;;;6.07;4.93;;;15.80;99.90;;;;;;5025332;28;20239;-42
2021/08/01 01:20:12;;;;;;;6.70;5.10;;;15.80;99.90;;;;;;5044805;28;20249;-42
2021/08/01 01:22:47;;;;;;;6.40;4.87;;;15.80;99.90;;;;;;5042261;28;20183;-42
2021/08/01 01:25:40;;;;;;;6.90;4.67;;;15.90;99.90;;;;;;5038488;28;20269;-41
2021/08/01 01:28:12;;;;;;;7.87;4.77;;;15.80;99.90;;;;;;5042827;28;20734;-47
2021/08/01 01:30:46;;;;;;;7.33;5.30;;;15.80;99.90;;;;;;5041524;28;20895;-41
2021/08/01 01:33:18;;;;;;;7.13;5.00;;;15.80;99.90;;;;;;5025285;28;20290;-46
2021/08/01 01:35:55;;;;;;;5.50;4.63;;;15.80;99.90;;;;;;5042587;28;20219;-43
2021/08/01 01:38:26;;;;;;;8.63;5.17;;;15.80;99.90;;;;;;5040966;28;20723;-47
2021/08/01 01:41:12;;;;;;;5.03;4.57;;;15.80;99.90;;;;;;5043484;28;20203;-46
2021/08/01 01:43:54;;;;;;;5.03;4.50;;;15.80;99.90;;;;;;5051981;28;20671;-44
2021/08/01 01:46:24;;;;;;;9.37;4.73;;;15.80;99.90;;;;;;5059828;28;20250;-45
2021/08/01 01:48:52;;;;;;;8.63;5.40;;;15.80;99.90;;;;;;5039862;28;20253;-44
2021/08/01 01:51:19;;;;;;;5.30;4.57;;;15.80;99.90;;;;;;5039970;28;20268;-46
2021/08/01 01:53:48;;;;;;;6.77;5.03;;;15.80;99.90;;;;;;5042609;28;20206;-41
2021/08/01 01:56:16;;;;;;;8.33;5.10;;;15.80;99.90;;;;;;5040718;28;20220;-46
2021/08/01 01:58:43;;;;;;;4.83;4.43;;;15.80;99.90;;;;;;5041314;28;21021;-41
2021/08/01 02:01:11;;;;;;;5.93;4.60;;;15.80;99.90;;;;;;5043250;28;20199;-46
2021/08/01 02:03:39;;;;;;;11.43;4.80;;;15.80;99.90;;;;;;5023435;28;23894;-46
2021/08/01 02:06:15;;;;;;;6.63;5.03;;;15.80;99.90;;;;;;5043106;28;20871;-47
2021/08/01 02:08:58;;;;;;;6.90;4.67;;;15.80;99.90;;;;;;5042432;28;20203;-46
2021/08/01 02:11:49;;;;;;;4.90;4.40;;;15.80;99.90;;;;;;5042044;28;20223;-42
2021/08/01 02:14:33;;;;;;;5.33;4.40;;;15.80;99.90;;;;;;5038798;28;20812;-41
2021/08/01 02:17:06;;;;;;;5.33;4.83;;;15.80;99.90;;;;;;5044064;28;20222;-43
2021/08/01 02:19:38;;;;;;;6.93;4.70;;;15.80;99.90;;;;;;5022802;28;20921;-42
2021/08/01 02:22:08;;;;;;;6.20;4.17;;;15.80;99.90;;;;;;5034646;28;20245;-46
2021/08/01 02:24:37;;;;;;;3.93;3.53;;;15.80;99.90;;;;;;5041059;28;20237;-41
2021/08/01 02:27:05;;;;;;;4.90;4.43;;;15.80;99.90;;;;;;5042701;28;20222;-47
2021/08/01 02:29:33;;;;;;;4.47;4.07;;;15.80;99.90;;;;;;5038311;28;20195;-47
2021/08/01 02:32:00;;;;;;;6.03;3.63;;;15.80;99.90;;;;;;5043753;28;20195;-41
2021/08/01 02:34:32;;;;;;;4.60;3.80;;;15.80;99.90;;;;;;5023268;28;21498;-41
2021/08/01 02:37:02;;;;;;;4.17;3.83;;;15.80;99.90;;;;;;5042951;28;20290;-41
2021/08/01 02:39:31;;;;;;;4.57;4.10;;;15.80;99.90;;;;;;5038569;28;20188;-42
2021/08/01 02:42:02;;;;;;;6.20;4.07;;;15.80;99.90;;;;;;5042338;28;20290;-42
2021/08/01 02:44:30;;;;;;;4.60;4.13;;;15.70;99.90;;;;;;5039568;28;20411;-44
2021/08/01 02:46:59;;;;;;;6.00;4.13;;;15.80;99.90;;;;;;5043882;28;20226;-41
2021/08/01 02:49:29;;;;;;;7.83;4.57;;;15.80;99.90;;;;;;5021493;28;20333;-42
2021/08/01 02:52:00;;;;;;;5.53;4.70;;;15.70;99.90;;;;;;5041819;28;20610;-44
2021/08/01 02:54:28;;;;;;;8.17;4.60;;;15.70;99.90;;;;;;5038169;28;20207;-42
2021/08/01 02:56:59;;;;;;;5.53;4.90;;;15.70;99.90;;;;;;5043254;28;20707;-44
2021/08/01 02:59:30;;;;;;;6.80;4.70;;;15.70;99.90;;;;;;5038061;28;20187;-41
2021/08/01 03:01:59;;;;;;;7.00;5.27;;;15.70;99.90;;;;;;5043453;28;20274;-42
2021/08/01 03:04:29;;;;;;;6.40;5.80;;;15.70;99.90;;;;;;5022182;28;20919;-42
2021/08/01 03:06:57;;;;;;;7.87;5.10;;;15.70;99.90;;;;;;5041433;28;20223;-44
2021/08/01 03:09:25;;;;;;;5.57;4.97;;;15.70;99.90;;;;;;5038015;28;20219;-43
2021/08/01 03:11:52;;;;;;;6.97;5.07;;;15.70;99.90;;;;;;5045473;28;20195;-41
2021/08/01 03:14:18;;;;;;;5.73;5.10;;;15.60;99.90;;;;;;5043060;28;20609;-48
2021/08/01 03:16:47;;;;;;;5.30;4.80;;;15.70;99.90;;;;;;5046800;28;20318;-41
2021/08/01 03:19:13;;;;;;;5.50;4.80;;;15.70;99.90;;;;;;5035770;28;20191;-43
2021/08/01 03:21:42;;;;;;;5.47;3.50;;;15.70;99.90;;;;;;5031102;28;20210;-42
2021/08/01 03:24:32;;;;;;;3.13;2.93;;;15.70;99.90;;;;;;5041949;28;20203;-42
2021/08/01 03:27:05;;;;;;;2.63;2.43;;;15.60;99.90;;;;;;5044362;28;20298;-46
2021/08/01 03:29:32;;;;;;;3.30;2.80;;;15.60;99.90;;;;;;5045705;28;20188;-41
2021/08/01 03:32:00;;;;;;;4.20;2.77;;;15.60;99.90;;;;;;5044509;28;20195;-48
2021/08/01 03:34:27;;;;;;;2.70;2.47;;;15.50;99.90;;;;;;5041166;28;20192;-41
2021/08/01 03:36:56;;;;;;;3.97;2.47;;;15.50;99.90;;;;;;5014435;28;20211;-43
2021/08/01 03:39:42;;;;;;;5.93;2.60;;;15.60;99.90;;;;;;5038544;28;20716;-49
2021/08/01 03:42:09;;;;;;;3.03;2.40;;;15.50;99.90;;;;;;5044083;28;20290;-44
2021/08/01 03:44:36;;;;;;;2.80;2.33;;;15.50;99.90;;;;;;5043792;28;20198;-48
2021/08/01 03:47:04;;;;;;;3.13;2.60;;;15.50;99.90;;;;;;5045084;28;20238;-44
2021/08/01 03:49:30;;;;;;;2.53;2.30;;;15.50;99.90;;;;;;5045649;28;20195;-47
2021/08/01 03:51:57;;;;;;;2.60;2.40;;;15.50;99.90;;;;;;5027496;28;20215;-44
2021/08/01 03:54:24;;;;;;;3.73;2.23;;;15.50;99.90;;;;;;5042171;28;20203;-41
2021/08/01 03:56:50;;;;;;;2.30;2.10;;;15.50;99.90;;;;;;5042394;28;20824;-44
2021/08/01 03:59:17;;;;;;;6.17;2.70;;;15.50;99.90;;;;;;5045451;28;20206;-45
2021/08/01 04:01:44;;;;;;;4.53;2.50;;;15.50;99.90;;;;;;5035345;28;20661;-46
2021/08/01 04:04:12;;;;;;;3.57;2.63;;;15.60;99.90;;;;;;5046617;28;20200;-42
2021/08/01 04:06:38;;;;;;;2.33;2.13;;;15.50;99.90;;;;;;5018551;28;20216;-47
2021/08/01 04:09:05;;;;;;;2.87;2.50;;;15.50;99.90;;;;;;5042611;28;20192;-44
2021/08/01 04:11:32;;;;;;;5.77;2.70;;;15.50;99.90;;;;;;5040155;28;20578;-48
2021/08/01 04:13:59;;;;;;;4.30;2.50;;;15.50;99.90;;;;;;5022341;28;20254;-47
2021/08/01 04:16:25;;;;;;;4.13;2.83;;;15.50;99.90;;;;;;5037837;28;20222;-44
2021/08/01 04:18:52;;;;;;;3.27;2.97;;;15.50;99.90;;;;;;5032320;28;20286;-42
2021/08/01 04:21:20;;;;;;;3.03;2.73;;;15.60;99.90;;;;;;5021507;28;21908;-42
2021/08/01 04:23:47;;;;;;;4.50;3.00;;;15.60;99.90;;;;;;5041436;28;20207;-44
2021/08/01 04:26:13;;;;;;;4.63;2.87;;;15.50;99.90;;;;;;5038048;28;20237;-45
2021/08/01 04:28:40;;;;;;;3.40;2.67;;;15.50;99.90;;;;;;5044231;28;20784;-43
2021/08/01 04:31:07;;;;;;;5.57;2.93;;;15.50;99.90;;;;;;5038020;28;20283;-47
2021/08/01 04:33:35;;;;;;;6.47;3.20;;;15.50;99.90;;;;;;5033977;28;20788;-41
2021/08/01 04:36:02;;;;;;;8.20;3.77;;;15.50;99.90;;;;;;5035211;28;20229;-47
2021/08/01 04:38:31;;;;;;;5.17;3.67;;;15.50;99.90;;;;;;5022454;28;20196;-41
2021/08/01 04:40:58;;;;;;;5.87;3.40;;;15.50;99.90;;;;;;5032430;28;20198;-45
2021/08/01 04:43:25;;;;;;;5.27;3.57;;;15.50;99.90;;;;;;5038016;28;20192;-40
2021/08/01 04:45:52;;;;;;;5.70;3.30;;;15.50;99.90;;;;;;5043463;28;20214;-43
2021/08/01 04:48:18;;;;;;;6.77;3.23;;;15.50;99.90;;;;;;5026696;28;20192;-44
2021/08/01 04:50:45;;;;;;;4.20;3.17;;;15.50;99.90;;;;;;5041594;28;20560;-41
2021/08/01 04:53:11;;;;;;;4.87;3.63;;;15.60;99.90;;;;;;5020392;28;20680;-47
2021/08/01 04:55:39;;;;;;;7.07;4.20;;;15.60;99.90;;;;;;5043473;28;20226;-44
2021/08/01 04:58:06;;;;;;;6.37;4.70;;;15.60;99.90;;;;;;5038204;28;20203;-46
2021/08/01 05:00:33;;;;;;;5.47;4.20;;;15.50;99.90;;;;;;5041222;28;20796;-40
2021/08/01 05:03:00;;;;;;;6.70;4.57;;;15.60;99.90;;;;;;5043264;28;20199;-44
2021/08/01 05:05:26;;;;;;;5.33;4.63;;;15.60;99.90;;;;;;5041149;28;20440;-42
2021/08/01 05:07:53;;;;;;;8.10;5.80;;;15.60;99.90;;;;;;5024223;28;20727;-44
2021/08/01 05:10:20;;;;;;;9.73;6.20;;;15.60;99.90;;;;;;5038316;28;20367;-41
2021/08/01 05:12:48;;;;;;;8.60;5.87;;;15.60;99.90;;;;;;5038857;28;20199;-46
2021/08/01 05:15:15;;;;;;;9.73;6.30;;;15.60;99.90;;;;;;5040962;28;20203;-47
2021/08/01 05:17:41;;;;;;;10.27;6.90;;;15.70;99.90;;;;;;5040102;28;20548;-44
2021/08/01 05:20:09;;;;;;;7.43;6.63;;;15.70;99.90;;;;;;5032785;28;20187;-46
2021/08/01 05:22:35;;;;;;;11.80;7.07;;;15.70;99.90;;;;;;5033797;28;20929;-41
2021/08/01 05:25:02;;;;;;;10.50;7.23;;;15.80;99.90;;;;;;5025281;28;20212;-45
2021/08/01 05:27:29;;;;;;;10.80;6.80;;;15.80;99.90;;;;;;5026206;28;20231;-41
2021/08/01 05:29:57;;;;;;;12.63;7.43;;;15.80;99.90;;;;;;5043677;28;20194;-42
2021/08/01 05:32:23;;;;;;;10.90;7.07;;;15.80;99.90;;;;;;5040759;28;20254;-42
2021/08/01 05:34:50;;;;;;;10.77;7.37;;;15.80;99.90;;;;;;5032644;28;20211;-41
2021/08/01 05:37:16;;;;;;;14.13;8.20;;;15.80;99.90;;;;;;5030563;28;20934;-47
2021/08/01 05:39:43;;;;;;;9.50;7.13;;;15.90;99.90;;;;;;5028747;28;20220;-45
2021/08/01 05:42:10;;;;;;;11.63;7.93;;;15.90;99.90;;;;;;5040844;28;20206;-43
2021/08/01 05:44:36;;;;;;;8.97;7.20;;;15.90;99.90;;;;;;5027789;28;20210;-40
2021/08/01 05:47:06;;;;;;;9.50;6.93;;;15.90;99.90;;;;;;5029510;28;20222;-46
2021/08/01 05:49:33;;;;;;;11.53;7.80;;;15.90;99.90;;;;;;5040323;28;20262;-41
2021/08/01 05:52:00;;;;;;;11.30;7.90;;;15.90;99.90;;;;;;5041840;28;20199;-45
2021/08/01 05:54:27;;;;;;;11.67;7.43;;;15.90;99.90;;;;;;5016685;28;20215;-40
2021/08/01 05:56:53;;;;;;;10.90;7.33;;;15.90;99.90;;;;;;5041737;28;20211;-42
2021/08/01 05:59:20;;;;;;;8.10;6.97;;;15.90;99.90;;;;;;5030727;28;20202;-43
2021/08/01 06:01:46;;;;;;;11.43;7.33;;;15.90;99.90;;;;;;5038611;28;20199;-41
2021/08/01 06:04:16;;;;;;;15.50;6.97;;;16.00;99.90;;;;;;5033892;28;20221;-46
2021/08/01 06:06:42;;;;;;;13.43;7.50;;;16.00;99.90;;;;;;5026896;28;20789;-41
2021/08/01 06:09:09;;;;;;;13.70;7.77;;;16.00;99.90;;;;;;5039448;28;20210;-42
2021/08/01 06:11:35;;;;;;;13.33;8.40;;;16.10;99.90;;;;;;5013778;28;20204;-47
2021/08/01 06:14:02;;;;;;;14.13;8.17;;;16.10;99.90;;;;;;5029888;28;20574;-45
2021/08/01 06:16:29;;;;;;;11.23;7.73;;;16.10;99.90;;;;;;5037889;28;20231;-50
2021/08/01 06:18:55;;;;;;;10.77;8.07;;;16.10;99.90;;;;;;5038437;28;20211;-41
2021/08/01 06:21:23;;;;;;;12.37;8.43;;;16.10;99.90;;;;;;5035866;28;20534;-46
2021/08/01 06:23:52;;;;;;;11.63;8.17;;;16.10;99.90;;;;;;5028505;28;20207;-40
2021/08/01 06:26:20;;;;;;;11.07;8.67;;;16.20;99.90;;;;;;5027811;28;20215;-46
2021/08/01 06:28:47;;;;;;;13.97;8.87;;;16.20;99.90;;;;;;5031046;28;20188;-44
2021/08/01 06:31:14;;;;;;;14.47;8.33;;;16.20;99.90;;;;;;5033442;28;20199;-44
2021/08/01 06:33:42;;;;;;;12.17;8.80;;;16.20;99.90;;;;;;5030689;28;20191;-45
2021/08/01 06:36:09;;;;;;;14.07;9.13;;;16.20;99.90;;;;;;5027748;28;20227;-43
2021/08/01 06:38:38;;;;;;;9.17;7.87;;;16.20;99.90;;;;;;5026805;28;20552;-49
2021/08/01 06:41:05;;;;;;;12.83;8.83;;;16.30;99.90;;;;;;5035666;28;20751;-44
2021/08/01 06:43:32;;;;;;;10.03;8.33;;;16.30;99.90;;;;;;5017636;28;20215;-46
2021/08/01 06:45:59;;;;;;;13.37;8.60;;;16.30;99.90;;;;;;5028507;28;20208;-43
2021/08/01 06:48:26;;;;;;;10.60;8.00;;;16.40;99.90;;;;;;5040577;28;20203;-47
2021/08/01 06:50:53;;;;;;;13.83;7.97;;;16.40;99.90;;;;;;5035397;28;20187;-41
2021/08/01 06:53:19;;;;;;;14.73;8.00;;;16.50;99.90;;;;;;5032572;28;20214;-44
2021/08/01 06:55:47;;;;;;;10.83;7.80;;;16.50;99.90;;;;;;5035386;28;20967;-44
2021/08/01 06:58:18;;;;;;;10.77;7.37;;;16.50;99.90;;;;;;5026484;28;20215;-43
2021/08/01 07:00:46;;;;;;;10.50;8.03;;;16.50;99.90;;;;;;5037024;28;20237;-45
2021/08/01 07:03:13;;;;;;;9.93;7.10;;;16.60;99.90;;;;;;5035701;28;20218;-44
2021/08/01 07:05:39;;;;;;;12.80;7.70;;;16.60;99.90;;;;;;5030155;28;20218;-41
2021/08/01 07:08:06;;;;;;;10.40;7.20;;;16.70;99.90;;;;;;5039985;28;20203;-46
2021/08/01 07:10:32;;;;;;;12.17;7.57;;;16.70;99.90;;;;;;5034526;28;20207;-45
2021/08/01 07:13:04;;;;;;;11.50;8.40;;;16.70;99.90;;;;;;5023451;28;20206;-46
2021/08/01 07:15:31;;;;;;;11.77;7.07;;;16.70;99.90;;;;;;5029814;28;20196;-47
2021/08/01 07:17:58;;;;;;;9.70;6.60;;;16.70;99.90;;;;;;5033109;28;20223;-46
2021/08/01 07:20:26;;;;;;;9.83;6.30;;;16.70;99.90;;;;;;5037403;28;20211;-44
2021/08/01 07:22:54;;;;;;;10.70;6.83;;;16.80;99.90;;;;;;5030020;28;20196;-46
2021/08/01 07:25:23;;;;;;;9.37;7.03;;;16.80;99.90;;;;;;5039220;28;20208;-46
2021/08/01 07:27:49;;;;;;;9.40;6.43;;;16.90;99.90;;;;;;5019335;28;20302;-43
2021/08/01 07:30:17;;;;;;;9.67;6.87;;;16.90;99.90;;;;;;5042595;28;21869;-41
2021/08/01 07:32:44;;;;;;;9.10;6.60;;;16.90;99.90;;;;;;5033123;28;20203;-45
2021/08/01 07:35:11;;;;;;;7.40;6.43;;;17.00;99.90;;;;;;5033841;28;20265;-42
2021/08/01 07:37:38;;;;;;;7.27;6.20;;;16.90;99.90;;;;;;5033542;28;20207;-46
2021/08/01 07:40:06;;;;;;;10.23;7.07;;;16.90;99.90;;;;;;5040783;28;20195;-46
2021/08/01 07:42:33;;;;;;;7.20;6.30;;;16.90;99.90;;;;;;5016657;28;20219;-47
2021/08/01 07:45:02;;;;;;;9.63;6.60;;;16.90;99.90;;;;;;5036257;28;20199;-44
2021/08/01 07:47:34;;;;;;;8.40;6.00;;;17.00;99.90;;;;;;5026363;28;20215;-48
2021/08/01 07:50:02;;;;;;;10.00;6.13;;;17.00;99.90;;;;;;5040347;28;20203;-43
2021/08/01 07:52:28;;;;;;;10.47;6.10;;;17.20;99.90;;;;;;5027631;28;20199;-48
2021/08/01 07:54:56;;;;;;;8.23;5.90;;;17.30;99.90;;;;;;5036621;28;20253;-47
2021/08/01 07:57:24;;;;;;;9.90;5.43;;;17.30;99.90;;;;;;5036869;28;20617;-49
2021/08/01 07:59:51;;;;;;;10.73;6.57;;;17.40;99.90;;;;;;5025337;28;20202;-44
2021/08/01 08:02:17;;;;;;;8.67;5.97;;;17.50;99.90;;;;;;5031575;28;20195;-46
2021/08/01 08:04:45;;;;;;;10.73;6.00;;;17.60;99.90;;;;;;5029884;28;20200;-46
2021/08/01 08:07:12;;;;;;;9.40;5.77;;;17.70;99.90;;;;;;5044098;28;20216;-45
2021/08/01 08:09:39;;;;;;;11.53;5.87;;;17.70;99.90;;;;;;5037522;28;20191;-47
2021/08/01 08:12:07;;;;;;;10.43;5.73;;;17.70;99.90;;;;;;5043281;28;20199;-45
2021/08/01 08:14:33;;;;;;;6.83;5.43;;;17.70;99.90;;;;;;5017276;28;20210;-51
2021/08/01 08:17:00;;;;;;;8.20;6.40;;;17.80;99.90;;;;;;5042972;28;20219;-47
2021/08/01 08:19:27;;;;;;;6.70;5.97;;;17.80;99.90;;;;;;5039452;28;20661;-52
2021/08/01 08:21:56;;;;;;;8.27;6.17;;;17.90;99.90;;;;;;5026594;28;20196;-44
2021/08/01 08:24:23;;;;;;;7.73;6.40;;;17.90;99.90;;;;;;5033599;28;20329;-52
2021/08/01 08:26:49;;;;;;;9.20;6.33;;;18.00;99.90;;;;;;5032277;28;20211;-46
2021/08/01 08:29:16;;;;;;;8.27;6.10;;;18.00;99.90;;;;;;5024634;28;20206;-46
2021/08/01 08:31:49;;;;;;;8.40;5.90;;;18.00;99.90;;;;;;5035374;28;20958;-42
2021/08/01 08:34:15;;;;;;;6.53;5.97;;;18.00;99.90;;;;;;5041018;28;20199;-49
2021/08/01 08:36:42;;;;;;;9.97;5.27;;;18.10;99.90;;;;;;5042111;28;20222;-46
2021/08/01 08:39:10;;;;;;;10.63;5.50;;;18.20;99.90;;;;;;5043439;28;20231;-49
2021/08/01 08:41:37;;;;;;;5.57;5.00;;;18.20;99.90;;;;;;5041492;28;20180;-50
2021/08/01 08:44:04;;;;;;;7.30;4.97;;;18.20;99.90;;;;;;5044098;28;20195;-45
2021/08/01 08:46:34;;;;;;;7.13;4.93;;;18.20;99.90;;;;;;5026628;28;20929;-45
2021/08/01 08:49:07;;;;;;;9.30;6.10;;;18.10;99.90;;;;;;5043581;28;20609;-44
2021/08/01 08:51:34;;;;;;;6.70;5.20;;;18.10;99.90;;;;;;5037684;28;20199;-43
2021/08/01 08:54:02;;;;;;;8.37;4.63;;;18.10;99.90;;;;;;5030289;28;20194;-47
2021/08/01 08:56:30;;;;;;;5.17;4.70;;;18.00;99.90;;;;;;5033200;28;20283;-47
2021/08/01 08:58:58;;;;;;;6.20;5.30;;;18.00;99.90;;;;;;5034789;28;20211;-46
2021/08/01 09:01:25;;;;;;;6.43;5.93;;;18.10;99.90;;;;;;5016898;28;20211;-46
2021/08/01 09:03:51;;;;;;;7.80;5.43;;;18.10;99.90;;;;;;5028626;28;20208;-41
2021/08/01 09:06:18;;;;;;;7.33;5.03;;;18.20;99.90;;;;;;5029461;28;20227;-57
2021/08/01 09:08:45;;;;;;;5.67;5.07;;;18.20;99.90;;;;;;5030014;28;20204;-59
2021/08/01 09:11:11;;;;;;;5.40;5.00;;;18.20;99.90;;;;;;5032642;28;20195;-58
2021/08/01 09:13:47;;;;;;;8.90;5.47;;;18.30;99.90;;;;;;5042773;28;20194;-59
2021/08/01 09:16:15;;;;;;;6.03;5.53;;;18.40;99.90;;;;;;5026328;28;20223;-59
2021/08/01 09:18:42;;;;;;;6.67;4.77;;;18.70;99.90;;;;;;5035994;28;20200;-59
2021/08/01 09:21:09;;;;;;;4.30;3.90;;;18.70;99.90;;;;;;5038714;28;20231;-59
2021/08/01 09:23:36;;;;;;;7.67;4.43;;;18.80;99.90;;;;;;5041055;28;20195;-60
2021/08/01 09:26:04;;;;;;;6.07;4.40;;;18.80;99.90;;;;;;5037928;28;20745;-59
2021/08/01 09:28:32;;;;;;;7.40;4.20;;;18.70;99.90;;;;;;5041318;28;20187;-46
2021/08/01 09:31:02;;;;;;;6.40;3.80;;;18.70;99.90;;;;;;5028749;28;20200;-43
2021/08/01 09:33:36;;;;;;;4.03;3.73;;;18.70;99.90;;;;;;5028801;28;20215;-45
2021/08/01 09:36:12;;;;;;;4.77;4.37;;;18.70;99.90;;;;;;5028885;28;20711;-50
2021/08/01 09:38:46;;;;;;;5.33;4.30;;;18.70;99.90;;;;;;5039421;28;20200;-43
2021/08/01 09:41:13;;;;;;;5.30;4.13;;;18.70;99.90;;;;;;5035808;28;20198;-49
2021/08/01 09:43:45;;;;;;;6.57;3.90;;;18.60;99.90;;;;;;5042073;28;20203;-42
2021/08/01 09:46:13;;;;;;;4.97;4.20;;;18.70;99.90;;;;;;5037134;28;20223;-46
2021/08/01 09:48:40;;;;;;;4.43;4.03;;;18.80;99.90;;;;;;5026745;28;20211;-48
2021/08/01 09:51:08;;;;;;;5.73;3.50;;;18.90;99.90;;;;;;5037821;28;20565;-50
2021/08/01 09:53:35;;;;;;;4.17;3.87;;;19.00;99.90;;;;;;5040125;28;20202;-45
2021/08/01 09:56:17;;;;;;;4.10;3.80;;;19.00;99.90;;;;;;5043686;28;20219;-51
2021/08/01 09:58:44;;;;;;;4.10;3.53;;;19.00;99.90;;;;;;5025322;28;20196;-49
2021/08/01 10:01:12;;;;;;;3.80;3.50;;;19.00;99.90;;;;;;5034899;28;20223;-50
2021/08/01 10:03:41;;;;;;;3.53;3.23;;;18.90;99.90;;;;;;5021810;28;20219;-43
2021/08/01 10:06:12;;;;;;;3.97;3.53;;;19.00;99.90;;;;;;5024875;28;20314;-53
2021/08/01 10:08:41;;;;;;;4.23;3.87;;;19.20;99.90;;;;;;5040810;28;20207;-48
2021/08/01 10:11:12;;;;;;;4.47;3.70;;;19.20;99.90;;;;;;5036905;28;20188;-50
2021/08/01 10:13:40;;;;;;;4.37;3.40;;;19.30;99.90;;;;;;5038494;28;20668;-45
2021/08/01 10:16:09;;;;;;;3.70;3.40;;;19.30;99.90;;;;;;5037436;28;20982;-52
2021/08/01 10:18:38;;;;;;;5.10;3.17;;;19.40;99.90;;;;;;5020390;28;20224;-45
2021/08/01 10:21:06;;;;;;;4.63;3.53;;;19.30;99.90;;;;;;5025027;28;20219;-52
2021/08/01 10:23:37;;;;;;;3.60;2.93;;;19.40;99.90;;;;;;5026116;28;20230;-43
2021/08/01 10:26:11;;;;;;;3.03;2.83;;;19.40;99.90;;;;;;5024156;28;20223;-48
2021/08/01 10:28:42;;;;;;;3.77;2.73;;;19.50;99.90;;;;;;5038955;28;20977;-43
2021/08/01 10:31:12;;;;;;;3.27;2.97;;;19.50;99.90;;;;;;5026670;28;20207;-51
2021/08/01 10:33:48;;;;;;;2.93;2.67;;;19.50;99.90;;;;;;5033862;28;20704;-43
2021/08/01 10:36:22;;;;;;;2.83;2.63;;;19.60;99.90;;;;;;5011506;28;20600;-49
2021/08/01 10:38:50;;;;;;;2.70;2.50;;;19.80;99.90;;;;;;5025334;28;20269;-42
2021/08/01 10:41:18;;;;;;;2.57;2.37;;;20.00;99.90;;;;;;5033276;28;20207;-49
2021/08/01 10:43:46;;;;;;;2.50;2.30;;;20.20;99.90;;;;;;5034823;28;20203;-45
2021/08/01 10:46:17;;;;;;;2.57;2.37;;;20.30;99.90;;;;;;5032153;28;20735;-52
2021/08/01 10:48:46;;;;;;;2.37;2.20;;;20.30;99.90;;;;;;5028936;28;20204;-42
2021/08/01 10:51:14;;;;;;;3.67;1.90;;;20.30;99.90;;;;;;5016985;28;20226;-50
2021/08/01 10:53:41;;;;;;;1.97;1.83;;;20.10;99.90;;;;;;5054359;28;20560;-45
2021/08/01 10:56:31;;;;;;;1.60;1.50;;;19.60;99.90;;;;;;5050328;28;20317;-51
2021/08/01 10:58:57;;;;;;;1.97;1.53;;;19.10;99.90;;;;;;5026991;28;20253;-47
2021/08/01 11:01:24;;;;;;;1.83;1.40;;;18.60;99.90;;;;;;5032854;28;20203;-47
2021/08/01 11:04:29;;;;;;;3.67;2.27;;;18.30;99.90;;;;;;5030965;28;20207;-43
2021/08/01 11:06:55;;;;;;;2.27;1.73;;;18.10;99.90;;;;;;5025193;28;20326;-44
2021/08/01 11:09:22;;;;;;;4.33;1.70;;;18.00;99.90;;;;;;5037141;28;20198;-42
2021/08/01 11:12:32;;;;;;;2.40;1.60;;;18.00;99.90;;;;;;5036713;28;20227;-47
2021/08/01 11:14:58;;;;;;;1.60;1.50;;;17.90;99.90;;;;;;5015525;28;20196;-44
2021/08/01 11:18:05;;;;;;;3.23;1.53;;;17.80;99.90;;;;;;5026518;28;20229;-42
2021/08/01 11:20:49;;;;;;;3.30;1.63;;;17.70;99.90;;;;;;5025242;28;20202;-43
2021/08/01 11:23:16;;;;;;;3.33;1.70;;;17.60;99.90;;;;;;5032051;28;20221;-50
2021/08/01 11:26:07;;;;;;;2.33;2.13;;;17.50;99.90;;;;;;5030711;28;20214;-42
2021/08/01 11:28:35;;;;;;;3.97;2.43;;;17.40;99.90;;;;;;5038945;28;20881;-43
2021/08/01 11:31:21;;;;;;;3.10;1.90;;;17.30;99.90;;;;;;5050991;28;20210;-49
2021/08/01 11:33:50;;;;;;;3.60;2.27;;;17.30;99.90;;;;;;5040666;28;20572;-42
2021/08/01 11:36:25;;;;;;;4.37;2.20;;;17.20;99.90;;;;;;5022584;28;20248;-49
2021/08/01 11:39:06;;;;;;;2.40;2.30;;;17.20;99.90;;;;;;5037229;28;20701;-46
2021/08/01 11:41:38;;;;;;;6.53;2.50;;;17.20;99.90;;;;;;5026783;28;20206;-42
2021/08/01 11:44:06;;;;;;;4.70;2.20;;;17.00;99.90;;;;;;5040185;28;20282;-50
2021/08/01 11:47:09;;;;;;;4.03;2.60;;;17.00;99.90;;;;;;5036696;28;20225;-42
2021/08/01 11:49:47;;;;;;;4.40;2.53;;;16.80;99.90;;;;;;5035747;28;20787;-46
2021/08/01 11:52:20;;;;;;;2.57;2.23;;;16.80;99.90;;;;;;5021394;28;20583;-50
2021/08/01 11:54:47;;;;;;;3.97;2.90;;;16.60;99.90;;;;;;5038884;28;20747;-45
2021/08/01 11:57:16;;;;;;;3.90;2.80;;;16.60;99.90;;;;;;5034224;28;20230;-49
2021/08/01 11:59:44;;;;;;;7.50;3.33;;;16.60;99.90;;;;;;5040376;28;20407;-43
2021/08/01 12:02:12;;;;;;;3.57;3.03;;;16.60;99.90;;;;;;5034059;28;20280;-49
2021/08/01 12:04:41;;;;;;;3.43;3.10;;;16.70;99.90;;;;;;5035454;28;22230;-45
2021/08/01 12:07:08;;;;;;;5.47;2.90;;;16.70;99.90;;;;;;5022279;28;20227;-51
2021/08/01 12:09:38;;;;;;;2.90;2.70;;;16.70;99.90;;;;;;5037793;28;20199;-45
2021/08/01 12:12:07;;;;;;;4.13;3.63;;;16.80;99.90;;;;;;5043332;28;20727;-49
2021/08/01 12:14:36;;;;;;;3.40;3.07;;;17.00;99.90;;;;;;5037592;28;20194;-43
2021/08/01 12:17:06;;;;;;;3.40;3.20;;;17.10;99.90;;;;;;5034604;28;20226;-49
2021/08/01 12:19:37;;;;;;;5.13;3.80;;;17.20;99.90;;;;;;5028158;28;20202;-45
2021/08/01 12:22:07;;;;;;;5.77;3.73;;;17.30;99.90;;;;;;5041862;28;20817;-48
2021/08/01 12:24:39;;;;;;;4.93;4.17;;;17.40;99.90;;;;;;5030428;28;20203;-42
2021/08/01 12:27:09;;;;;;;4.40;3.90;;;17.60;99.90;;;;;;5027521;28;20215;-49
2021/08/01 12:29:40;;;;;;;3.93;3.50;;;17.60;99.90;;;;;;5038230;28;20908;-44
2021/08/01 12:32:27;;;;;;;4.70;3.27;;;17.70;99.90;;;;;;5038679;28;20222;-47
2021/08/01 12:35:02;;;;;;;5.37;3.87;;;17.60;99.90;;;;;;5040123;28;20203;-42
2021/08/01 12:37:30;;;;;;;4.87;3.60;;;17.60;99.90;;;;;;5022473;28;20243;-42
2021/08/01 12:39:56;;;;;;;3.37;3.00;;;17.60;99.90;;;;;;5038598;28;20211;-47
2021/08/01 12:42:24;;;;;;;2.87;2.50;;;17.60;99.90;;;;;;5033901;28;20967;-43
2021/08/01 12:44:57;;;;;;;3.07;2.63;;;17.50;99.90;;;;;;5042562;28;20217;-47
2021/08/01 12:47:25;;;;;;;4.47;2.77;;;17.40;99.90;;;;;;5034946;28;20949;-46
2021/08/01 12:49:53;;;;;;;3.37;2.27;;;17.30;99.90;;;;;;5024572;28;20195;-50
2021/08/01 12:52:22;;;;;;;2.20;2.00;;;17.20;99.90;;;;;;5036139;28;20207;-43
2021/08/01 12:54:50;;;;;;;2.57;2.07;;;17.10;99.90;;;;;;5025824;28;20749;-49
2021/08/01 12:57:17;;;;;;;4.27;2.70;;;17.00;99.90;;;;;;5033803;28;20298;-42